Time;durP1;ratioP1;P1;durP2;ratioP2;P2;SDS_P1;SDS_P2;PMS_P1;PMS_P2;Temp;Humidity;BMP_temperature;BMP_pressure;BME280_temperature;BME280_humidity;BME280_pressure;Samples;Min_cycle;Max_cycle;Signal;HPM_P1;HPM_P2
2022/08/13 00:01:22;;;;;;;4.45;3.83;;;;;;;17.33;96.83;101800.72;5052928;28;20029;-74
2022/08/13 00:03:49;;;;;;;;;;;;;;;17.28;96.85;101798.50;5054185;28;20029;-74
2022/08/13 00:06:22;;;;;;;4.28;3.70;;;;;;;17.22;96.74;101800.00;5052810;28;19908;-73
2022/08/13 00:08:48;;;;;;;7.90;4.25;;;;;;;17.20;96.91;101801.19;5052937;28;20037;-74
2022/08/13 00:12:56;;;;;;;4.10;3.70;;;;;;;17.16;97.64;101800.63;5052470;28;20021;-74
2022/08/13 00:13:59;;;;;;;10.55;5.90;;;;;;;17.12;98.14;101793.88;5052744;28;20215;-74
2022/08/13 00:16:25;;;;;;;6.03;4.95;;;;;;;17.08;97.62;101797.91;5052811;28;20082;-74
2022/08/13 00:18:50;;;;;;;6.57;5.47;;;;;;;17.04;99.27;101794.69;5052829;28;20414;-74
2022/08/13 00:21:16;;;;;;;8.88;5.20;;;;;;;16.98;99.33;101795.31;5052711;28;20069;-74
2022/08/13 00:23:43;;;;;;;9.95;4.50;;;;;;;16.96;99.40;101799.16;5052759;28;20029;-74
2022/08/13 00:26:11;;;;;;;8.32;4.93;;;;;;;16.90;98.80;101798.78;5052594;28;20037;-74
2022/08/13 00:28:37;;;;;;;4.65;4.10;;;;;;;16.87;98.28;101796.44;5052582;28;20037;-74
2022/08/13 00:31:05;;;;;;;4.22;3.67;;;;;;;16.83;97.74;101794.19;5052609;28;20037;-74
2022/08/13 00:33:31;;;;;;;5.45;3.95;;;;;;;16.79;97.06;101792.78;5052682;28;20028;-74
2022/08/13 00:35:56;;;;;;;5.15;4.03;;;;;;;16.75;97.34;101790.44;5052652;28;20044;-74
2022/08/13 00:38:24;;;;;;;5.18;3.95;;;;;;;16.72;96.63;101787.22;5052644;28;20041;-74
2022/08/13 00:40:52;;;;;;;4.80;4.32;;;;;;;16.71;97.48;101791.72;5052811;28;20025;-74
2022/08/13 00:43:18;;;;;;;8.88;4.63;;;;;;;16.70;98.28;101794.56;5053308;28;20049;-74
2022/08/13 00:45:44;;;;;;;5.18;4.10;;;;;;;16.65;97.60;101789.69;5052801;28;20040;-74
2022/08/13 00:50:56;;;;;;;6.78;3.83;;;;;;;16.56;96.86;101786.06;5052876;28;20068;-74
2022/08/13 00:53:24;;;;;;;3.97;3.58;;;;;;;16.53;96.58;101794.44;5052404;28;20060;-74
2022/08/13 00:55:51;;;;;;;3.90;3.50;;;;;;;16.48;96.41;101791.41;5053956;28;20064;-74
2022/08/13 00:58:20;;;;;;;4.60;3.65;;;;;;;16.44;96.38;101795.38;5056047;28;20056;-75
2022/08/13 01:00:57;;;;;;;4.95;4.00;;;;;;;16.40;96.26;101785.94;5055687;28;20037;-74
2022/08/13 01:03:25;;;;;;;3.60;3.30;;;;;;;16.37;96.04;101791.63;5055699;28;20040;-74
2022/08/13 01:05:50;;;;;;;5.32;3.33;;;;;;;16.33;96.32;101792.91;5055950;28;20055;-74
2022/08/13 01:08:19;;;;;;;4.30;3.65;;;;;;;16.28;96.04;101792.53;5055775;28;20036;-74
2022/08/13 01:10:49;;;;;;;4.07;3.65;;;;;;;16.26;95.75;101789.16;5055583;28;20036;-74
2022/08/13 01:13:17;;;;;;;3.72;3.30;;;;;;;16.21;95.50;101792.31;5055670;28;20032;-74
2022/08/13 01:15:44;;;;;;;5.30;3.45;;;;;;;16.18;95.56;101793.47;5055895;28;20028;-74
2022/08/13 01:18:13;;;;;;;3.42;3.13;;;;;;;16.15;95.25;101787.53;5055170;28;20526;-74
2022/08/13 01:20:45;;;;;;;5.78;3.92;;;;;;;16.11;95.43;101784.34;5055521;28;20040;-74
2022/08/13 01:23:12;;;;;;;5.38;3.80;;;;;;;16.11;95.50;101783.47;5055817;28;20028;-74
2022/08/13 01:25:37;;;;;;;5.47;3.83;;;;;;;16.08;95.43;101790.00;5055439;28;20065;-74
2022/08/13 01:28:03;;;;;;;3.85;3.55;;;;;;;16.05;95.27;101790.31;5037498;28;20063;-74
2022/08/13 01:30:32;;;;;;;6.00;3.75;;;;;;;16.01;95.48;101796.97;5055965;28;20112;-74
2022/08/13 01:32:58;;;;;;;3.45;3.15;;;;;;;15.98;95.25;101792.75;5055314;28;20462;-74
2022/08/13 01:35:25;;;;;;;4.50;3.70;;;;;;;15.96;95.14;101791.19;5055480;28;20416;-74
2022/08/13 01:37:53;;;;;;;3.95;3.55;;;;;;;15.93;95.40;101788.81;5054045;28;20091;-74
2022/08/13 01:40:19;;;;;;;4.68;3.72;;;;;;;15.89;95.03;101792.81;5055187;28;20029;-74
2022/08/13 01:42:48;;;;;;;5.20;3.53;;;;;;;15.84;94.94;101794.13;5055115;28;20045;-74
2022/08/13 01:45:14;;;;;;;7.85;4.50;;;;;;;15.81;94.91;101790.91;5055054;28;20029;-75
2022/08/13 01:50:29;;;;;;;6.35;3.90;;;;;;;15.78;94.68;101796.53;5055558;28;20040;-74
2022/08/13 01:53:01;;;;;;;4.00;3.60;;;;;;;15.73;94.35;101794.28;5055045;28;20493;-74
2022/08/13 01:55:39;;;;;;;4.25;3.70;;;;;;;15.69;94.55;101787.53;5055329;28;20401;-74
2022/08/13 01:58:08;;;;;;;4.85;3.72;;;;;;;15.65;93.86;101786.97;5055203;28;20048;-74
2022/08/13 02:00:34;;;;;;;5.55;4.18;;;;;;;15.62;94.15;101786.44;5053863;28;20071;-74
2022/08/13 02:03:01;;;;;;;6.93;3.92;;;;;;;15.58;93.90;101788.56;5055086;28;20032;-74
2022/08/13 02:05:27;;;;;;;6.40;4.25;;;;;;;15.53;93.58;101796.22;5054467;28;20060;-75
2022/08/13 02:07:53;;;;;;;5.50;3.85;;;;;;;15.48;93.82;101793.13;5054130;28;20025;-74
2022/08/13 02:10:22;;;;;;;4.13;3.72;;;;;;;15.44;93.70;101791.75;5054670;28;20039;-74
2022/08/13 02:12:48;;;;;;;4.88;4.05;;;;;;;15.41;93.77;101790.22;5054668;28;20040;-75
2022/08/13 02:15:15;;;;;;;4.20;3.80;;;;;;;15.36;93.68;101787.13;5054613;28;20521;-74
2022/08/13 02:17:43;;;;;;;4.53;3.50;;;;;;;15.33;93.31;101790.09;5055293;28;20045;-74
2022/08/13 02:20:17;;;;;;;4.47;3.53;;;;;;;15.29;93.27;101791.41;5054728;28;20040;-74
2022/08/13 02:22:45;;;;;;;4.75;3.83;;;;;;;15.27;93.22;101793.34;5054818;28;20029;-74
2022/08/13 02:25:12;;;;;;;5.22;3.50;;;;;;;15.23;93.50;101794.66;5054377;28;20086;-74
2022/08/13 02:27:38;;;;;;;7.72;3.63;;;;;;;15.20;93.62;101794.94;5054237;28;20136;-74
2022/08/13 02:30:07;;;;;;;5.25;4.13;;;;;;;15.14;93.34;101793.72;5054286;28;20068;-74
2022/08/13 02:32:35;;;;;;;6.07;4.28;;;;;;;15.12;93.75;101795.66;5054189;28;20033;-75
2022/08/13 02:35:01;;;;;;;4.43;3.88;;;;;;;15.09;93.91;101801.31;5054230;28;20033;-74
2022/08/13 02:37:28;;;;;;;6.13;3.92;;;;;;;15.05;93.88;101800.78;5052734;28;20048;-74
2022/08/13 02:39:54;;;;;;;5.20;4.45;;;;;;;15.02;94.12;101803.75;5054185;28;20037;-74
2022/08/13 02:42:21;;;;;;;6.82;4.20;;;;;;;14.99;93.80;101798.69;5054117;28;20163;-74
2022/08/13 02:44:48;;;;;;;4.38;3.65;;;;;;;14.93;93.72;101794.75;5052731;28;20124;-74
2022/08/13 02:47:19;;;;;;;5.57;4.40;;;;;;;14.90;93.89;101792.34;5053911;28;20033;-75
2022/08/13 02:49:50;;;;;;;4.90;4.40;;;;;;;14.88;94.01;101802.34;5053881;28;20116;-74
2022/08/13 02:52:17;;;;;;;6.30;4.68;;;;;;;14.85;94.25;101804.47;5053852;28;20033;-73
2022/08/13 02:54:47;;;;;;;4.70;4.10;;;;;;;14.81;94.24;101799.41;5053363;28;20102;-74
2022/08/13 02:57:13;;;;;;;4.78;3.92;;;;;;;14.75;94.21;101791.09;5052540;28;20025;-74
2022/08/13 02:59:40;;;;;;;6.53;4.07;;;;;;;14.73;94.61;101793.91;5053740;28;20039;-74
2022/08/13 03:02:07;;;;;;;4.45;4.00;;;;;;;14.70;94.58;101794.19;5054141;28;20079;-74
2022/08/13 03:04:33;;;;;;;4.28;3.83;;;;;;;14.68;94.57;101790.84;5053305;28;20033;-74
2022/08/13 03:07:00;;;;;;;6.38;4.40;;;;;;;14.67;94.77;101793.66;5036405;28;20535;-74
2022/08/13 03:09:27;;;;;;;6.07;4.03;;;;;;;14.63;95.03;101790.44;5053520;28;20394;-74
2022/08/13 03:11:52;;;;;;;6.13;3.83;;;;;;;14.61;94.91;101792.38;5053295;28;20394;-74
2022/08/13 03:14:19;;;;;;;5.10;3.78;;;;;;;14.58;94.63;101795.31;5053461;28;20060;-74
2022/08/13 03:16:44;;;;;;;6.38;4.35;;;;;;;14.55;95.15;101796.44;5053531;28;20037;-74
2022/08/13 03:19:10;;;;;;;4.43;4.00;;;;;;;14.52;95.16;101795.88;5053432;28;20035;-74
2022/08/13 03:21:43;;;;;;;6.40;4.47;;;;;;;14.50;94.88;101798.72;5052372;28;20364;-74
2022/08/13 03:24:12;;;;;;;4.50;4.03;;;;;;;14.47;95.02;101796.31;5053660;28;20033;-74
2022/08/13 03:26:38;;;;;;;5.35;4.10;;;;;;;14.44;95.22;101797.44;5053153;28;20029;-75
2022/08/13 03:29:03;;;;;;;6.47;5.25;;;;;;;14.42;95.49;101794.06;5052047;28;20040;-74
2022/08/13 03:31:29;;;;;;;5.05;3.95;;;;;;;14.39;95.61;101794.34;5052858;28;20029;-75
2022/08/13 03:33:58;;;;;;;7.35;4.80;;;;;;;14.39;95.54;101798.84;5053212;28;20056;-74
2022/08/13 03:36:25;;;;;;;4.40;4.00;;;;;;;14.37;95.49;101798.16;5053472;28;20033;-74
2022/08/13 03:38:50;;;;;;;4.32;3.92;;;;;;;14.34;95.28;101798.44;5053467;28;20033;-74
2022/08/13 03:41:15;;;;;;;5.00;3.90;;;;;;;14.30;95.03;101792.50;5053016;28;20048;-74
2022/08/13 03:43:43;;;;;;;4.43;4.03;;;;;;;14.27;95.11;101792.78;5052662;28;20029;-74
2022/08/13 03:46:14;;;;;;;5.35;3.88;;;;;;;14.25;95.12;101800.09;5053165;28;20098;-75
2022/08/13 03:48:40;;;;;;;4.35;3.70;;;;;;;14.22;94.78;101792.34;5052903;28;20029;-74
2022/08/13 03:51:06;;;;;;;6.00;3.90;;;;;;;14.18;94.63;101786.44;5051746;28;20037;-75
2022/08/13 03:53:32;;;;;;;4.65;4.15;;;;;;;14.14;94.65;101793.06;5052988;28;20036;-74
2022/08/13 03:55:58;;;;;;;3.75;3.38;;;;;;;14.10;94.88;101792.47;5053058;28;20033;-74
2022/08/13 03:58:26;;;;;;;4.80;3.88;;;;;;;14.07;94.78;101783.91;5051766;28;20099;-76
2022/08/13 04:00:52;;;;;;;4.15;3.75;;;;;;;14.05;94.80;101789.38;5052852;28;20431;-75
2022/08/13 04:03:28;;;;;;;4.45;3.97;;;;;;;14.05;94.94;101788.56;5051663;28;20033;-75
2022/08/13 04:06:06;;;;;;;4.20;3.80;;;;;;;14.03;95.07;101793.19;5053722;28;20029;-74
2022/08/13 04:08:34;;;;;;;4.20;3.80;;;;;;;13.99;94.81;101797.09;5053168;28;20473;-74
2022/08/13 04:11:01;;;;;;;7.68;4.10;;;;;;;13.97;94.85;101791.88;5052893;28;20052;-74
2022/08/13 04:13:28;;;;;;;4.53;3.50;;;;;;;13.96;95.05;101797.38;5052748;28;20079;-74
2022/08/13 04:15:53;;;;;;;4.45;4.05;;;;;;;13.92;94.80;101794.97;5052498;28;20059;-75
2022/08/13 04:18:19;;;;;;;8.32;4.97;;;;;;;13.89;94.62;101795.25;5052517;28;20041;-74
2022/08/13 04:20:54;;;;;;;5.47;4.45;;;;;;;13.89;94.82;101800.59;5053173;28;20366;-75
2022/08/13 04:23:21;;;;;;;5.70;4.20;;;;;;;13.88;95.08;101792.72;5051430;28;20390;-75
2022/08/13 04:25:47;;;;;;;5.55;4.10;;;;;;;13.87;95.06;101799.09;5052972;28;20040;-75
2022/08/13 04:28:18;;;;;;;8.55;4.43;;;;;;;13.87;95.24;101788.38;5052599;28;20033;-74
2022/08/13 04:30:44;;;;;;;5.53;4.40;;;;;;;13.87;95.31;101791.06;5054907;28;20099;-74
2022/08/13 04:33:11;;;;;;;5.70;3.55;;;;;;;13.84;95.16;101786.81;5056347;28;20532;-74
2022/08/13 04:35:38;;;;;;;6.60;4.28;;;;;;;13.85;95.21;101793.00;5056944;28;20052;-74
2022/08/13 04:38:05;;;;;;;5.10;3.70;;;;;;;13.85;95.10;101798.34;5056476;28;20040;-74
2022/08/13 04:40:35;;;;;;;7.05;4.32;;;;;;;13.85;95.90;101793.00;5056188;28;20029;-74
2022/08/13 04:43:00;;;;;;;4.40;3.90;;;;;;;13.85;95.61;101790.31;5056473;28;20063;-73
2022/08/13 04:45:28;;;;;;;8.15;4.80;;;;;;;13.87;96.14;101797.25;5056282;28;20037;-74
2022/08/13 04:47:58;;;;;;;7.03;5.07;;;;;;;13.90;96.35;101793.47;5055106;28;20040;-74
2022/08/13 04:50:24;;;;;;;10.18;4.50;;;;;;;13.91;96.12;101801.34;5056144;28;20033;-74
2022/08/13 04:52:50;;;;;;;5.57;4.57;;;;;;;13.93;95.81;101793.19;5056118;28;20037;-74
2022/08/13 04:55:16;;;;;;;7.40;3.67;;;;;;;13.93;95.91;101793.19;5055793;28;20029;-73
2022/08/13 04:57:42;;;;;;;5.25;4.10;;;;;;;13.94;95.82;101792.16;5055763;28;20036;-74
2022/08/13 05:00:09;;;;;;;4.13;3.75;;;;;;;13.94;95.78;101792.16;5056475;28;20398;-74
2022/08/13 05:02:38;;;;;;;4.03;3.63;;;;;;;13.98;96.13;101793.59;5055902;28;20116;-74
2022/08/13 05:05:04;;;;;;;5.30;3.90;;;;;;;14.01;96.35;101793.31;5056492;28;20028;-73
2022/08/13 05:07:30;;;;;;;4.43;3.80;;;;;;;14.04;96.02;101793.03;5055679;28;20041;-73
2022/08/13 05:09:55;;;;;;;3.40;3.10;;;;;;;14.07;95.74;101794.59;5055823;28;20106;-73
2022/08/13 05:12:21;;;;;;;7.05;3.10;;;;;;;14.12;95.99;101786.97;5055834;28;20029;-74
2022/08/13 05:14:46;;;;;;;4.05;3.75;;;;;;;14.16;96.04;101795.59;5055673;28;20119;-74
2022/08/13 05:17:11;;;;;;;4.60;3.67;;;;;;;14.19;95.69;101788.13;5055638;28;20479;-74
2022/08/13 05:19:37;;;;;;;3.92;3.60;;;;;;;14.25;95.80;101789.41;5055868;28;20043;-73
2022/08/13 05:22:03;;;;;;;5.32;4.30;;;;;;;14.29;95.60;101797.00;5055568;28;20029;-74
2022/08/13 05:24:28;;;;;;;8.50;3.85;;;;;;;14.36;95.61;101796.44;5054360;28;20505;-74
2022/08/13 05:26:54;;;;;;;7.13;4.03;;;;;;;14.41;95.11;101803.06;5054147;28;20033;-74
2022/08/13 05:29:19;;;;;;;7.97;3.42;;;;;;;14.44;95.27;101800.13;5055445;28;20029;-74
2022/08/13 05:31:46;;;;;;;3.63;3.20;;;;;;;14.51;95.03;101800.41;5055846;28;20041;-74
2022/08/13 05:34:12;;;;;;;7.30;3.60;;;;;;;14.56;94.88;101800.81;5054107;28;20033;-76
2022/08/13 05:36:39;;;;;;;5.05;4.20;;;;;;;14.62;95.33;101796.75;5055492;28;20037;-76
2022/08/13 05:39:05;;;;;;;5.88;4.63;;;;;;;14.67;95.69;101799.84;5055140;28;20037;-75
2022/08/13 05:41:30;;;;;;;6.85;4.35;;;;;;;14.73;95.29;101796.59;5054825;28;20112;-76
2022/08/13 05:43:56;;;;;;;9.38;4.88;;;;;;;14.80;95.08;101797.72;5054758;28;20486;-75
2022/08/13 05:46:24;;;;;;;9.65;4.85;;;;;;;14.87;94.68;101803.34;5053952;28;20467;-75
2022/08/13 05:48:56;;;;;;;5.88;4.45;;;;;;;14.94;94.80;101796.44;5055638;28;20035;-75
2022/08/13 05:51:31;;;;;;;6.72;4.07;;;;;;;15.02;94.38;101802.88;5055638;28;20037;-74
2022/08/13 05:53:59;;;;;;;5.93;4.60;;;;;;;15.08;94.24;101800.47;5055579;28;20086;-75
2022/08/13 05:56:25;;;;;;;5.03;4.43;;;;;;;15.17;93.87;101804.13;5054982;28;20037;-74
2022/08/13 05:58:51;;;;;;;6.68;4.70;;;;;;;15.27;93.00;101802.28;5054880;28;20068;-75
2022/08/13 06:04:14;;;;;;;6.93;4.35;;;;;;;15.51;92.60;101801.75;5055128;28;20398;-75
2022/08/13 06:06:40;;;;;;;7.18;4.10;;;;;;;15.63;92.15;101798.84;5054646;28;20047;-75
2022/08/13 06:09:06;;;;;;;6.22;4.47;;;;;;;15.75;91.73;101796.81;5054773;28;20056;-75
2022/08/13 06:11:32;;;;;;;9.05;4.25;;;;;;;15.86;91.60;101797.47;5054759;28;20064;-75
2022/08/13 06:13:57;;;;;;;9.63;4.43;;;;;;;16.00;90.91;101801.50;5053601;28;20478;-73
2022/08/13 06:16:28;;;;;;;6.35;4.00;;;;;;;16.15;89.36;101809.88;5054626;28;20390;-74
2022/08/13 06:18:57;;;;;;;8.40;4.22;;;;;;;16.28;88.05;101804.13;5054503;28;20032;-73
2022/08/13 06:21:24;;;;;;;6.53;4.68;;;;;;;16.44;86.83;101800.75;5054177;28;20430;-74
2022/08/13 06:23:51;;;;;;;8.32;4.85;;;;;;;16.61;86.40;101804.41;5053185;28;20060;-74
2022/08/13 06:26:20;;;;;;;5.00;4.50;;;;;;;16.79;84.90;101808.94;5054883;28;20033;-74
2022/08/13 06:28:47;;;;;;;10.70;5.40;;;;;;;16.95;83.99;101805.56;5054275;28;20024;-73
2022/08/13 06:31:16;;;;;;;8.65;5.03;;;;;;;17.09;82.91;101813.88;5053997;28;20025;-74
2022/08/13 06:33:43;;;;;;;7.05;4.50;;;;;;;17.25;81.94;101806.91;5053907;28;20469;-74
2022/08/13 06:36:11;;;;;;;5.95;4.38;;;;;;;17.37;81.31;101808.31;5053840;28;20116;-74
2022/08/13 06:38:41;;;;;;;5.57;3.58;;;;;;;17.51;80.92;101809.56;5054645;28;20033;-73
2022/08/13 06:41:08;;;;;;;10.50;4.63;;;;;;;17.59;80.14;101806.06;5054373;28;20020;-73
2022/08/13 06:43:39;;;;;;;10.77;5.22;;;;;;;17.69;77.54;101808.59;5053887;28;20191;-73
2022/08/13 06:46:05;;;;;;;7.90;4.22;;;;;;;17.85;77.29;101808.66;5054062;28;20477;-74
2022/08/13 06:48:33;;;;;;;6.75;3.78;;;;;;;18.01;77.31;101804.38;5054150;28;20033;-73
2022/08/13 06:50:59;;;;;;;12.40;4.10;;;;;;;18.13;76.84;101806.59;5052602;28;20052;-73
2022/08/13 06:53:25;;;;;;;6.05;3.83;;;;;;;18.28;76.64;101804.06;5052283;28;20029;-75
2022/08/13 06:55:52;;;;;;;5.70;3.85;;;;;;;18.43;76.96;101817.72;5053754;28;20037;-77
2022/08/13 06:58:28;;;;;;;8.30;4.75;;;;;;;18.55;76.54;101807.47;5053737;28;20033;-77
2022/08/13 07:00:55;;;;;;;8.13;4.30;;;;;;;18.71;76.03;101803.94;5053689;28;20044;-78
2022/08/13 07:03:25;;;;;;;7.60;4.15;;;;;;;18.89;75.53;101805.66;5053800;28;20056;-75
2022/08/13 07:05:51;;;;;;;6.60;3.97;;;;;;;19.03;74.70;101802.22;5053672;28;20029;-75
2022/08/13 07:08:17;;;;;;;14.32;3.53;;;;;;;19.22;74.70;101795.63;5053305;28;20394;-75
2022/08/13 07:10:51;;;;;;;9.07;4.20;;;;;;;19.38;74.06;101797.44;5054024;28;20029;-77
2022/08/13 07:13:20;;;;;;;7.60;4.38;;;;;;;19.55;73.73;101803.59;5054101;28;20040;-81
2022/08/13 07:15:46;;;;;;;11.10;3.78;;;;;;;19.74;73.74;101797.75;5053097;28;20033;-78
2022/08/13 07:18:11;;;;;;;11.15;3.72;;;;;;;19.90;72.81;101802.28;5053478;28;20032;-78
2022/08/13 07:20:37;;;;;;;9.35;3.88;;;;;;;20.07;73.06;101797.59;5053367;28;20029;-76
2022/08/13 07:23:03;;;;;;;8.13;3.13;;;;;;;20.26;73.56;101795.47;5053352;28;20067;-75
2022/08/13 07:25:30;;;;;;;11.38;3.30;;;;;;;20.50;71.70;101793.59;5053663;28;20116;-75
2022/08/13 07:27:58;;;;;;;6.97;2.78;;;;;;;20.76;70.35;101802.16;5053257;28;20479;-79
2022/08/13 07:30:24;;;;;;;5.45;2.80;;;;;;;20.99;67.34;101804.00;5053614;28;20021;-75
2022/08/13 07:32:52;;;;;;;6.70;2.58;;;;;;;21.25;63.10;101802.69;5053187;28;20035;-81
2022/08/13 07:35:18;;;;;;;3.95;2.40;;;;;;;21.55;62.18;101800.00;5052206;28;20036;-78
2022/08/13 07:37:44;;;;;;;3.80;2.58;;;;;;;21.81;58.30;101807.59;5053965;28;20049;-77
2022/08/13 07:40:10;;;;;;;9.05;2.20;;;;;;;22.04;56.95;101793.09;5052849;28;20337;-77
2022/08/13 07:42:41;;;;;;;3.53;2.20;;;;;;;22.24;53.35;101806.81;5053409;28;20061;-76
2022/08/13 07:45:08;;;;;;;13.93;2.35;;;;;;;22.47;51.34;101807.50;5052660;28;20494;-80
2022/08/13 07:47:35;;;;;;;10.93;2.38;;;;;;;22.68;49.35;101808.50;5053031;28;20064;-79
2022/08/13 07:50:10;;;;;;;4.63;2.33;;;;;;;22.90;48.87;101809.31;5053097;28;20036;-77
2022/08/13 07:52:37;;;;;;;6.10;2.15;;;;;;;23.09;48.96;101815.06;5053091;28;20040;-76
2022/08/13 07:55:03;;;;;;;4.60;2.25;;;;;;;23.29;48.56;101813.34;5052689;28;20478;-77
2022/08/13 07:57:30;;;;;;;12.90;2.72;;;;;;;23.50;48.59;101809.69;5052766;28;20124;-78
2022/08/13 07:59:56;;;;;;;6.85;2.50;;;;;;;23.74;47.66;101810.22;5052832;28;20475;-79
2022/08/13 08:02:25;;;;;;;3.05;2.42;;;;;;;23.92;45.75;101817.84;5052673;28;20029;-79
2022/08/13 08:04:56;;;;;;;8.40;2.30;;;;;;;24.10;45.88;101815.38;5051687;28;20486;-78
2022/08/13 08:07:25;;;;;;;5.55;2.22;;;;;;;24.33;45.93;101813.31;5057043;28;20114;-79
2022/08/13 08:09:52;;;;;;;4.53;2.67;;;;;;;24.58;44.24;101808.09;5056965;28;20136;-81
2022/08/13 08:12:32;;;;;;;7.38;2.38;;;;;;;24.87;44.13;101809.59;5056333;28;20469;-77
2022/08/13 08:14:59;;;;;;;4.97;2.20;;;;;;;25.19;44.40;101812.47;5056823;28;20483;-78
2022/08/13 08:17:26;;;;;;;4.20;2.00;;;;;;;25.49;43.09;101818.25;5056935;28;20086;-76
2022/08/13 08:19:53;;;;;;;5.05;2.40;;;;;;;25.86;43.07;101814.97;5056599;28;20119;-75
2022/08/13 08:22:19;;;;;;;9.98;2.28;;;;;;;26.18;41.01;101815.84;5056669;28;20044;-76
2022/08/13 08:24:50;;;;;;;6.25;2.10;;;;;;;26.49;40.03;101816.88;5056723;28;20029;-75
2022/08/13 08:27:17;;;;;;;10.38;2.20;;;;;;;26.85;40.28;101812.63;5057054;28;20457;-75
2022/08/13 08:29:44;;;;;;;4.70;2.67;;;;;;;27.28;39.14;101809.03;5056808;28;20385;-75
2022/08/13 08:32:12;;;;;;;3.97;1.98;;;;;;;27.64;38.59;101808.44;5056697;28;20111;-76
2022/08/13 08:34:40;;;;;;;9.77;2.30;;;;;;;28.13;37.07;101812.81;5056755;28;20040;-74
2022/08/13 08:37:06;;;;;;;8.25;2.08;;;;;;;28.78;37.74;101805.69;5056421;28;20029;-75
2022/08/13 08:42:43;;;;;;;3.47;2.00;;;;;;;29.65;35.46;101814.13;5057035;28;20382;-76
2022/08/13 08:45:14;;;;;;;6.65;2.15;;;;;;;29.87;33.02;101809.69;5056821;28;20351;-77
2022/08/13 08:47:40;;;;;;;;;;;;;;;29.85;33.54;101811.81;5056623;28;20112;-78
2022/08/13 08:50:05;;;;;;;8.40;1.90;;;;;;;29.86;33.00;101810.75;5056200;28;19966;-77
2022/08/13 08:55:16;;;;;;;8.48;1.90;;;;;;;29.85;31.45;101816.50;5056566;28;20055;-78
2022/08/13 08:57:46;;;;;;;10.02;1.92;;;;;;;29.84;31.86;101806.59;5055965;28;20033;-79
2022/08/13 09:00:16;;;;;;;7.77;2.20;;;;;;;29.92;32.24;101810.84;5056526;28;20031;-79
2022/08/13 09:02:45;;;;;;;6.65;1.75;;;;;;;30.12;32.11;101805.72;5055155;28;20267;-77
2022/08/13 09:05:13;;;;;;;2.33;1.60;;;;;;;30.22;31.03;101807.84;5054505;28;20356;-82
2022/08/13 09:07:41;;;;;;;6.32;1.90;;;;;;;30.72;30.90;101803.44;5056314;28;20035;-81
2022/08/13 09:10:09;;;;;;;6.60;1.90;;;;;;;30.99;29.35;101797.25;5055548;28;20033;-80
2022/08/13 09:12:36;;;;;;;6.07;1.77;;;;;;;31.95;29.17;101813.28;5055567;28;20459;-80
2022/08/13 09:15:03;;;;;;;6.97;1.60;;;;;;;32.94;26.76;101798.41;5055233;28;20123;-79
2022/08/13 09:17:30;;;;;;;5.70;1.70;;;;;;;34.08;27.11;101795.81;5053794;28;20025;-86
2022/08/13 09:19:55;;;;;;;4.13;1.75;;;;;;;34.92;24.86;101792.72;5056052;28;20032;-81
2022/08/13 09:22:22;;;;;;;3.53;1.60;;;;;;;35.49;24.17;101798.03;5055306;28;20033;-85
2022/08/13 09:24:48;;;;;;;5.78;1.77;;;;;;;36.16;23.53;101798.44;5054618;28;20033;-84
2022/08/13 09:27:17;;;;;;;2.95;1.50;;;;;;;36.26;23.76;101799.44;5055323;28;20052;-79
2022/08/13 09:29:43;;;;;;;10.98;1.88;;;;;;;36.99;22.37;101800.41;5055452;28;20029;-81
2022/08/13 09:32:09;;;;;;;7.93;1.83;;;;;;;37.47;21.74;101794.81;5054673;28;20029;-84
2022/08/13 09:34:39;;;;;;;8.43;1.70;;;;;;;37.68;20.96;101797.31;5054810;28;20475;-83
2022/08/13 09:37:06;;;;;;;8.98;1.90;;;;;;;38.18;21.86;101799.63;5054555;28;20033;-83
2022/08/13 09:39:33;;;;;;;4.53;1.88;;;;;;;38.20;20.79;101795.41;5054528;28;20029;-83
2022/08/13 09:42:05;;;;;;;4.25;1.85;;;;;;;38.43;20.12;101793.63;5054464;28;20044;-80
2022/08/13 09:44:30;;;;;;;7.90;1.75;;;;;;;38.01;20.05;101783.50;5054874;28;20028;-81
2022/08/13 09:46:57;;;;;;;4.10;1.80;;;;;;;38.17;20.19;101781.28;5054585;28;20391;-76
2022/08/13 09:49:23;;;;;;;8.77;2.17;;;;;;;37.42;21.33;101777.44;5054436;28;20040;-84
2022/08/13 09:51:48;;;;;;;6.95;1.85;;;;;;;37.80;20.66;101777.44;5054519;28;20491;-85
2022/08/13 09:54:14;;;;;;;9.00;2.05;;;;;;;38.18;20.34;101774.63;5052918;28;20103;-79
2022/08/13 09:56:39;;;;;;;1.67;1.58;;;;;;;38.27;20.81;101781.97;5053208;28;20033;-85
2022/08/13 09:59:07;;;;;;;4.30;1.50;;;;;;;38.47;20.86;101779.94;5054693;28;20103;-76
2022/08/13 10:01:34;;;;;;;4.95;1.50;;;;;;;37.97;19.75;101772.19;5054441;28;20036;-85
2022/08/13 10:03:59;;;;;;;8.80;1.67;;;;;;;37.59;20.02;101766.63;5054400;28;20033;-86
2022/08/13 10:06:28;;;;;;;8.05;1.55;;;;;;;37.34;21.91;101774.22;5055225;28;20029;-87
2022/08/13 10:08:54;;;;;;;6.45;1.65;;;;;;;37.13;21.33;101768.09;5058396;28;20048;-78
2022/08/13 10:11:22;;;;;;;8.38;2.05;;;;;;;37.86;21.84;101765.97;5055990;28;20032;-80
2022/08/13 10:13:48;;;;;;;4.07;1.80;;;;;;;38.07;21.87;101766.44;5053997;28;20033;-80
2022/08/13 10:16:13;;;;;;;9.45;1.85;;;;;;;38.13;20.54;101766.34;5054426;28;20380;-81
2022/08/13 10:18:41;;;;;;;9.60;1.65;;;;;;;38.40;20.04;101771.19;5053810;28;20112;-80
2022/08/13 10:21:06;;;;;;;10.57;1.90;;;;;;;38.30;19.81;101761.09;5053159;28;20405;-86
2022/08/13 10:23:32;;;;;;;6.72;1.55;;;;;;;38.59;20.56;101766.38;5053855;28;20116;-82
2022/08/13 10:25:57;;;;;;;8.15;1.90;;;;;;;39.11;20.12;101765.38;5053999;28;20115;-86
2022/08/13 10:28:26;;;;;;;5.35;1.77;;;;;;;39.14;19.22;101760.00;5052456;28;20459;-86
2022/08/13 10:30:54;;;;;;;6.82;1.50;;;;;;;38.84;19.08;101764.22;5055897;28;20035;-83
2022/08/13 10:33:20;;;;;;;3.13;1.52;;;;;;;39.14;19.17;101760.00;5053711;28;20577;-85
2022/08/13 10:35:52;;;;;;;5.07;1.70;;;;;;;38.85;19.79;101768.66;5052420;28;20090;-82
2022/08/13 10:38:21;;;;;;;8.23;1.52;;;;;;;38.69;20.73;101759.81;5052503;28;20438;-79
2022/08/13 10:40:47;;;;;;;9.48;1.95;;;;;;;38.60;19.61;101756.88;5053629;28;20029;-79
2022/08/13 10:43:12;;;;;;;7.22;1.70;;;;;;;38.88;19.65;101756.13;5053401;28;20501;-79
2022/08/13 10:45:42;;;;;;;6.40;2.08;;;;;;;38.49;19.35;101754.63;5053058;28;20458;-82
2022/08/13 10:48:13;;;;;;;6.07;1.67;;;;;;;38.50;19.67;101750.72;5052880;28;20056;-79
2022/08/13 10:50:40;;;;;;;5.03;1.45;;;;;;;39.02;19.21;101754.13;5053382;28;20025;-80
2022/08/13 10:53:05;;;;;;;1.40;1.30;;;;;;;39.07;19.08;101747.63;5053220;28;20032;-79
2022/08/13 10:55:33;;;;;;;3.08;1.30;;;;;;;39.20;19.25;101748.78;5053247;28;20073;-74
2022/08/13 10:57:58;;;;;;;4.05;1.48;;;;;;;39.31;18.40;101753.78;5052881;28;20427;-74
2022/08/13 11:00:24;;;;;;;4.38;1.30;;;;;;;39.29;18.82;101747.69;5053402;28;20113;-80
2022/08/13 11:02:50;;;;;;;5.53;1.50;;;;;;;39.67;18.76;101744.63;5053289;28;20454;-86
2022/08/13 11:05:17;;;;;;;4.35;1.50;;;;;;;39.38;18.14;101742.22;5053052;28;20125;-79
2022/08/13 11:07:47;;;;;;;3.67;1.40;;;;;;;39.24;18.59;101745.06;5052706;28;20047;-78
2022/08/13 11:10:13;;;;;;;4.50;1.40;;;;;;;39.27;17.33;101746.38;5053111;28;20035;-80
2022/08/13 11:12:42;;;;;;;2.95;1.45;;;;;;;38.70;18.83;101749.50;5052640;28;20158;-79
2022/08/13 11:15:09;;;;;;;2.50;1.25;;;;;;;39.03;18.86;101738.28;5052993;28;20048;-85
2022/08/13 11:17:35;;;;;;;5.30;1.58;;;;;;;39.09;18.10;101735.06;5053222;28;20040;-79
2022/08/13 11:20:05;;;;;;;1.70;1.27;;;;;;;39.90;17.63;101736.25;5051619;28;20029;-82
2022/08/13 11:22:31;;;;;;;6.95;1.67;;;;;;;40.13;16.96;101730.69;5053232;28;20087;-80
2022/08/13 11:25:03;;;;;;;3.75;1.45;;;;;;;39.99;17.26;101733.53;5052874;28;20421;-78
2022/08/13 11:27:33;;;;;;;5.82;1.73;;;;;;;39.85;16.83;101728.88;5053006;28;20025;-84
2022/08/13 11:29:58;;;;;;;6.63;1.50;;;;;;;39.60;16.41;101727.53;5052778;28;20102;-76
2022/08/13 11:32:23;;;;;;;1.45;1.17;;;;;;;39.57;15.39;101710.66;5052473;28;20036;-83
2022/08/13 11:34:49;;;;;;;2.53;1.30;;;;;;;39.41;16.09;101722.09;5052303;28;20087;-75
2022/08/13 11:37:14;;;;;;;5.03;1.40;;;;;;;39.41;16.41;101713.75;5052321;28;20040;-74
2022/08/13 11:39:39;;;;;;;4.03;1.40;;;;;;;39.22;16.79;101713.94;5051106;28;20047;-74